Time;durP1;ratioP1;P1;durP2;ratioP2;P2;SDS_P1;SDS_P2;PMS_P1;PMS_P2;Temp;Humidity;BMP_temperature;BMP_pressure;BME280_temperature;BME280_humidity;BME280_pressure;Samples;Min_cycle;Max_cycle;Signal;HPM_P1;HPM_P2
2022/11/24 00:01:54;;;;;;;7.03;5.53;;;8.30;1.00;;;;;;5013101;28;20648;-65
2022/11/24 00:04:19;;;;;;;7.80;4.40;;;8.30;1.00;;;;;;5010386;28;20200;-66
2022/11/24 00:06:45;;;;;;;8.40;5.73;;;8.30;1.00;;;;;;5010925;28;20195;-65
2022/11/24 00:09:11;;;;;;;12.80;4.87;;;8.20;1.00;;;;;;5010234;28;20251;-66
2022/11/24 00:11:37;;;;;;;6.17;5.37;;;8.20;1.00;;;;;;5009562;28;20183;-66
2022/11/24 00:14:04;;;;;;;10.03;5.00;;;8.20;1.00;;;;;;5010613;28;20664;-66
2022/11/24 00:16:32;;;;;;;8.87;4.70;;;8.20;1.00;;;;;;5010760;28;20414;-66
2022/11/24 00:18:59;;;;;;;5.13;4.63;;;8.20;1.00;;;;;;5009886;28;20411;-66
2022/11/24 00:21:27;;;;;;;5.40;4.80;;;8.20;1.00;;;;;;5009662;28;20403;-66
2022/11/24 00:23:53;;;;;;;6.87;5.40;;;8.30;1.00;;;;;;5009733;28;20423;-66
2022/11/24 00:26:33;;;;;;;7.90;5.03;;;8.20;1.00;;;;;;5010175;28;20971;-66
2022/11/24 00:29:01;;;;;;;21.80;5.27;;;8.20;1.00;;;;;;5009990;28;20555;-66
2022/11/24 00:31:29;;;;;;;5.43;4.93;;;8.20;99.90;;;;;;5009578;28;20510;-65
2022/11/24 00:34:00;;;;;;;9.33;5.33;;;8.10;99.90;;;;;;5010952;28;20435;-65
2022/11/24 00:36:28;;;;;;;6.03;4.30;;;8.10;1.00;;;;;;5010732;28;20417;-63
2022/11/24 00:39:00;;;;;;;6.40;4.27;;;7.90;1.00;;;;;;5009507;28;20446;-65
2022/11/24 00:41:28;;;;;;;6.30;4.30;;;7.90;1.00;;;;;;5009376;28;20412;-66
2022/11/24 00:43:53;;;;;;;5.07;4.10;;;7.80;1.00;;;;;;5008519;28;20522;-65
2022/11/24 00:46:20;;;;;;;7.13;4.10;;;7.70;99.90;;;;;;5010224;28;20835;-65
2022/11/24 00:48:46;;;;;;;5.70;4.60;;;7.70;99.90;;;;;;5010162;28;20251;-65
2022/11/24 00:51:13;;;;;;;7.60;5.00;;;7.60;99.90;;;;;;5009346;28;20487;-65
2022/11/24 00:53:39;;;;;;;4.13;3.73;;;7.60;99.90;;;;;;5009807;28;20188;-65
2022/11/24 00:56:06;;;;;;;6.43;4.53;;;7.60;99.90;;;;;;5010171;28;20427;-66
2022/11/24 00:58:32;;;;;;;5.50;4.47;;;7.50;99.90;;;;;;5009890;28;20417;-65
2022/11/24 01:01:15;;;;;;;6.23;4.77;;;7.40;99.90;;;;;;5018151;28;20414;-66
2022/11/24 01:03:41;;;;;;;5.77;4.50;;;7.40;99.90;;;;;;5029759;28;20429;-65
2022/11/24 01:06:16;;;;;;;9.50;4.93;;;7.40;99.90;;;;;;5029870;28;20464;-66
2022/11/24 01:08:42;;;;;;;7.60;4.50;;;7.40;99.90;;;;;;5029241;28;20463;-66
2022/11/24 01:11:12;;;;;;;9.37;4.33;;;7.40;99.90;;;;;;5028753;28;20441;-66
2022/11/24 01:13:38;;;;;;;7.50;4.50;;;7.40;99.90;;;;;;5029676;28;20422;-66
2022/11/24 01:16:04;;;;;;;5.83;4.27;;;7.50;99.90;;;;;;5029502;28;20552;-66
2022/11/24 01:18:30;;;;;;;5.13;3.47;;;7.50;1.00;;;;;;5029857;28;20846;-65
2022/11/24 01:20:56;;;;;;;7.50;4.77;;;7.50;1.00;;;;;;5028970;28;20410;-65
2022/11/24 01:23:21;;;;;;;7.27;3.50;;;7.50;1.00;;;;;;5029446;28;20253;-66
2022/11/24 01:25:47;;;;;;;14.00;5.63;;;7.40;1.00;;;;;;5030049;28;20248;-66
2022/11/24 01:28:13;;;;;;;6.20;3.77;;;7.40;1.00;;;;;;5030163;28;20234;-65
2022/11/24 01:30:39;;;;;;;5.70;3.80;;;7.50;1.00;;;;;;5029240;28;20182;-65
2022/11/24 01:33:04;;;;;;;5.17;3.50;;;7.60;1.00;;;;;;5029746;28;20402;-65
2022/11/24 01:35:30;;;;;;;4.20;2.90;;;7.50;1.00;;;;;;5029535;28;20186;-65
2022/11/24 01:37:56;;;;;;;6.10;3.27;;;7.50;1.00;;;;;;5028894;28;20174;-66
2022/11/24 01:40:21;;;;;;;6.17;3.27;;;7.50;1.00;;;;;;5028950;28;20183;-64
2022/11/24 01:42:51;;;;;;;5.57;3.23;;;7.50;1.00;;;;;;5028926;28;20202;-66
2022/11/24 01:45:34;;;;;;;5.07;4.50;;;7.50;1.00;;;;;;5068227;22;20226;-66
2022/11/24 01:48:04;;;;;;;6.63;3.23;;;7.40;1.00;;;;;;5053472;28;20405;-64
2022/11/24 01:50:31;;;;;;;5.63;3.40;;;7.40;1.00;;;;;;5055181;28;20409;-65
2022/11/24 01:52:57;;;;;;;6.70;3.30;;;7.30;1.00;;;;;;5056433;28;20444;-66
2022/11/24 01:55:30;;;;;;;5.90;3.27;;;7.30;1.00;;;;;;5055979;28;20427;-66
2022/11/24 01:58:03;;;;;;;7.90;2.53;;;7.30;1.00;;;;;;5056141;28;20986;-66
2022/11/24 02:00:29;;;;;;;6.67;3.67;;;7.40;1.00;;;;;;5055131;28;20518;-66
2022/11/24 02:02:57;;;;;;;8.93;4.13;;;7.40;1.00;;;;;;5055605;28;20437;-66
2022/11/24 02:05:29;;;;;;;5.90;2.67;;;7.30;1.00;;;;;;5055594;28;20496;-65
2022/11/24 02:07:58;;;;;;;5.43;3.00;;;7.40;1.00;;;;;;5051902;28;20440;-64
2022/11/24 02:10:24;;;;;;;3.30;2.90;;;7.50;1.00;;;;;;5052113;28;20877;-65
2022/11/24 02:12:53;;;;;;;7.30;3.43;;;7.50;1.00;;;;;;5052125;28;20413;-65
2022/11/24 02:15:19;;;;;;;6.17;2.90;;;7.50;1.00;;;;;;5052604;28;20183;-66
2022/11/24 02:17:45;;;;;;;3.30;3.00;;;7.50;1.00;;;;;;5050677;28;20413;-64
2022/11/24 02:20:13;;;;;;;5.20;3.30;;;7.40;1.00;;;;;;5052132;28;20413;-66
2022/11/24 02:22:47;;;;;;;7.50;3.10;;;7.50;1.00;;;;;;5051124;28;20377;-66
2022/11/24 02:25:41;;;;;;;4.30;2.90;;;7.60;1.00;;;;;;5052370;28;20816;-66
2022/11/24 02:28:11;;;;;;;4.40;2.83;;;7.70;1.00;;;;;;5052069;28;21290;-66
2022/11/24 02:30:37;;;;;;;4.53;3.23;;;7.70;1.00;;;;;;5051452;28;20409;-64
2022/11/24 02:33:03;;;;;;;17.03;5.00;;;7.70;1.00;;;;;;5051913;28;20483;-65
2022/11/24 02:35:29;;;;;;;6.40;3.40;;;7.70;1.00;;;;;;5055057;28;20230;-67
2022/11/24 02:37:54;;;;;;;6.73;3.40;;;7.70;1.00;;;;;;5054353;28;20198;-67
2022/11/24 02:40:24;;;;;;;8.13;3.67;;;7.70;1.00;;;;;;5055113;28;20539;-67
2022/11/24 02:43:09;;;;;;;9.20;3.80;;;7.70;1.00;;;;;;5054349;28;20175;-67
2022/11/24 02:45:35;;;;;;;9.93;4.20;;;7.80;1.00;;;;;;5053435;28;20497;-68
2022/11/24 02:48:01;;;;;;;3.70;3.30;;;7.80;1.00;;;;;;5055156;28;20397;-67
2022/11/24 02:50:26;;;;;;;12.40;4.20;;;7.80;1.00;;;;;;5053780;28;20163;-66
2022/11/24 02:52:52;;;;;;;6.57;3.57;;;7.80;1.00;;;;;;5053659;28;20182;-67
2022/11/24 02:55:19;;;;;;;5.70;3.53;;;7.80;1.00;;;;;;5053323;28;20294;-65
2022/11/24 02:57:45;;;;;;;8.40;4.13;;;7.80;1.00;;;;;;5051454;28;20171;-65
2022/11/24 03:00:11;;;;;;;5.67;3.90;;;7.80;16.00;;;;;;5050562;28;20400;-66
2022/11/24 03:02:37;;;;;;;6.20;3.30;;;7.80;52.70;;;;;;5050746;28;20413;-67
2022/11/24 03:05:03;;;;;;;8.30;3.63;;;7.80;99.90;;;;;;5051547;28;20804;-65
2022/11/24 03:07:29;;;;;;;6.53;3.57;;;7.80;99.90;;;;;;5051118;28;20182;-63
2022/11/24 03:09:54;;;;;;;4.53;4.10;;;7.80;99.90;;;;;;5051429;28;20497;-65
2022/11/24 03:12:20;;;;;;;4.43;3.20;;;7.80;55.40;;;;;;5050492;28;20636;-64
2022/11/24 03:14:46;;;;;;;4.00;3.70;;;7.80;99.90;;;;;;5051232;28;20179;-63
2022/11/24 03:17:11;;;;;;;4.17;3.20;;;7.80;99.90;;;;;;5051631;28;20857;-66
2022/11/24 03:19:37;;;;;;;6.20;3.83;;;7.70;99.90;;;;;;5051670;28;20175;-64
2022/11/24 03:22:03;;;;;;;4.63;3.23;;;7.70;99.90;;;;;;5050383;28;20171;-62
2022/11/24 03:24:28;;;;;;;3.83;3.53;;;7.70;99.90;;;;;;5058074;28;20667;-66
2022/11/24 03:26:54;;;;;;;6.07;3.50;;;7.70;99.90;;;;;;5053398;28;20236;-65
2022/11/24 03:29:20;;;;;;;3.83;3.40;;;7.70;99.90;;;;;;5051059;28;20147;-65
2022/11/24 03:31:46;;;;;;;3.70;3.40;;;7.70;99.90;;;;;;5049922;28;20205;-65
2022/11/24 03:34:12;;;;;;;5.40;3.20;;;7.80;99.90;;;;;;5050338;28;20508;-67
2022/11/24 03:36:37;;;;;;;4.37;2.83;;;7.80;99.90;;;;;;5050922;28;20170;-65
2022/11/24 03:39:03;;;;;;;2.80;2.40;;;7.80;99.90;;;;;;5049929;28;20167;-66
2022/11/24 03:41:29;;;;;;;5.37;3.00;;;7.80;99.90;;;;;;5049876;28;20642;-64
2022/11/24 03:43:54;;;;;;;6.10;2.70;;;7.80;99.90;;;;;;5050256;28;20245;-66
2022/11/24 03:46:20;;;;;;;11.00;3.40;;;7.80;99.90;;;;;;5050559;28;20590;-66
2022/11/24 03:48:46;;;;;;;5.40;3.27;;;7.70;99.90;;;;;;5050470;28;20520;-64
2022/11/24 03:51:11;;;;;;;5.00;3.00;;;7.70;99.90;;;;;;5049497;28;20512;-66
2022/11/24 03:53:37;;;;;;;8.90;3.40;;;7.70;99.90;;;;;;5048641;28;20313;-65
2022/11/24 03:56:03;;;;;;;5.90;2.80;;;7.70;99.90;;;;;;5049326;28;20195;-65
2022/11/24 03:58:30;;;;;;;3.10;2.80;;;7.70;99.90;;;;;;5050087;28;20171;-64
2022/11/24 04:00:56;;;;;;;4.33;2.70;;;7.70;99.90;;;;;;5049529;28;20410;-64
2022/11/24 04:03:23;;;;;;;6.93;3.23;;;7.70;99.90;;;;;;5050600;28;20413;-65
2022/11/24 04:05:49;;;;;;;3.60;2.90;;;7.80;99.90;;;;;;5050565;28;20449;-66
2022/11/24 04:08:15;;;;;;;9.87;4.00;;;7.70;99.90;;;;;;5049871;28;20949;-64
2022/11/24 04:10:41;;;;;;;3.17;2.83;;;7.80;99.90;;;;;;5051102;28;20171;-66
2022/11/24 04:13:12;;;;;;;4.30;3.07;;;7.80;99.90;;;;;;5049717;28;20178;-66
2022/11/24 04:15:40;;;;;;;4.27;2.90;;;7.90;99.90;;;;;;5050002;28;20433;-66
2022/11/24 04:18:06;;;;;;;8.30;2.70;;;7.90;99.90;;;;;;5050356;28;20544;-66
2022/11/24 04:20:32;;;;;;;3.70;2.40;;;7.90;99.90;;;;;;5049333;28;20413;-66
2022/11/24 04:22:58;;;;;;;4.50;2.90;;;7.90;99.90;;;;;;5049529;28;20424;-66
2022/11/24 04:25:23;;;;;;;4.63;2.77;;;7.90;99.90;;;;;;5050161;28;20445;-64
2022/11/24 04:27:51;;;;;;;4.53;2.63;;;7.90;99.90;;;;;;5050162;28;20167;-65
2022/11/24 04:30:18;;;;;;;3.17;2.10;;;7.90;99.90;;;;;;5049605;28;20242;-65
2022/11/24 04:32:44;;;;;;;3.30;2.43;;;7.90;99.90;;;;;;5049618;28;20793;-65
2022/11/24 04:35:10;;;;;;;6.87;3.00;;;8.00;99.90;;;;;;5049769;28;20820;-64
2022/11/24 04:37:36;;;;;;;4.47;2.80;;;8.00;99.90;;;;;;5049067;28;20406;-64
2022/11/24 04:40:02;;;;;;;2.60;2.13;;;8.00;99.90;;;;;;5049966;28;20406;-64
2022/11/24 04:42:28;;;;;;;2.90;2.30;;;8.00;99.90;;;;;;5047651;28;20183;-64
2022/11/24 04:44:54;;;;;;;2.73;2.27;;;7.90;99.90;;;;;;5049612;28;20461;-63
2022/11/24 04:47:22;;;;;;;7.13;3.80;;;7.90;99.90;;;;;;5049438;28;20199;-64
2022/11/24 04:49:48;;;;;;;3.50;3.17;;;7.80;99.90;;;;;;5049932;28;20463;-65
2022/11/24 04:52:20;;;;;;;3.60;3.30;;;7.80;99.90;;;;;;5048049;28;20409;-65
2022/11/24 04:54:47;;;;;;;7.10;4.20;;;7.80;99.90;;;;;;5049856;28;20433;-65
2022/11/24 04:57:24;;;;;;;8.03;3.10;;;7.70;99.90;;;;;;5049630;28;20417;-63
2022/11/24 04:59:51;;;;;;;8.27;3.87;;;7.70;99.90;;;;;;5049624;28;20412;-64
2022/11/24 05:02:17;;;;;;;8.17;3.90;;;7.70;99.90;;;;;;5048674;28;20422;-64
2022/11/24 05:04:44;;;;;;;7.27;3.70;;;7.70;99.90;;;;;;5049710;28;20481;-64
2022/11/24 05:07:11;;;;;;;11.70;5.47;;;7.60;1.00;;;;;;5049124;28;20393;-64
2022/11/24 05:10:33;;;;;;;26.90;5.23;;;7.60;99.90;;;;;;5049490;28;20792;-63
2022/11/24 05:12:23;;;;;;;5.83;3.90;;;7.60;99.90;;;;;;5048370;28;20413;-64
2022/11/24 05:14:49;;;;;;;16.87;4.47;;;7.60;99.90;;;;;;5049784;28;20428;-64
2022/11/24 05:17:15;;;;;;;9.20;4.47;;;7.60;99.90;;;;;;5049534;28;20909;-64
2022/11/24 05:19:41;;;;;;;11.23;4.10;;;7.60;99.90;;;;;;5049883;28;20417;-64
2022/11/24 05:22:06;;;;;;;13.07;4.13;;;7.60;99.90;;;;;;5048526;28;20232;-64
2022/11/24 05:24:32;;;;;;;8.80;3.70;;;7.60;99.90;;;;;;5051750;28;20198;-64
2022/11/24 05:26:58;;;;;;;4.50;3.77;;;7.50;99.90;;;;;;5053020;28;20524;-64
2022/11/24 05:29:24;;;;;;;6.13;3.70;;;7.60;99.90;;;;;;5053196;28;20163;-66
2022/11/24 05:31:49;;;;;;;5.80;4.13;;;7.60;99.90;;;;;;5045536;28;20182;-66
2022/11/24 05:34:17;;;;;;;6.20;4.07;;;7.60;99.90;;;;;;5051845;28;20461;-66
2022/11/24 05:36:51;;;;;;;7.77;4.50;;;7.60;99.90;;;;;;5030854;28;20172;-65
2022/11/24 05:39:17;;;;;;;7.87;4.40;;;7.60;99.90;;;;;;5023438;28;20414;-65
2022/11/24 05:41:43;;;;;;;6.30;3.67;;;7.60;99.90;;;;;;5030529;28;20759;-64
2022/11/24 05:44:09;;;;;;;5.60;4.03;;;7.60;99.90;;;;;;5029815;28;20446;-65
2022/11/24 05:46:34;;;;;;;8.20;4.10;;;7.60;99.90;;;;;;5030060;28;20182;-65
2022/11/24 05:49:00;;;;;;;9.83;4.27;;;7.60;99.90;;;;;;5029535;28;20182;-65
2022/11/24 05:51:26;;;;;;;18.07;4.80;;;7.60;99.90;;;;;;5028961;28;20172;-67
2022/11/24 05:53:52;;;;;;;14.53;5.20;;;7.50;99.90;;;;;;5028897;28;20652;-65
2022/11/24 05:56:17;;;;;;;8.60;3.77;;;7.50;99.90;;;;;;5030030;28;20179;-64
2022/11/24 05:58:43;;;;;;;18.87;4.63;;;7.50;99.90;;;;;;5029531;28;20168;-66
2022/11/24 06:01:09;;;;;;;15.37;5.77;;;7.50;99.90;;;;;;5028891;28;20510;-67
2022/11/24 06:03:34;;;;;;;19.00;5.13;;;7.50;99.90;;;;;;5029566;28;20225;-66
2022/11/24 06:06:00;;;;;;;13.37;5.50;;;7.50;99.90;;;;;;5029981;28;20203;-65
2022/11/24 06:08:26;;;;;;;10.60;4.83;;;7.50;99.90;;;;;;5029100;28;20167;-65
2022/11/24 06:10:52;;;;;;;21.90;5.90;;;7.50;99.90;;;;;;5029151;28;20422;-63
2022/11/24 06:13:17;;;;;;;24.73;5.87;;;7.50;99.90;;;;;;5029702;28;20274;-65
2022/11/24 06:15:43;;;;;;;24.13;5.80;;;7.50;99.90;;;;;;5028974;28;20192;-66
2022/11/24 06:18:08;;;;;;;34.30;7.67;;;7.50;99.90;;;;;;5027377;28;20249;-68
2022/11/24 06:20:34;;;;;;;21.33;7.50;;;7.50;99.90;;;;;;5025651;28;20183;-70
2022/11/24 06:23:00;;;;;;;25.63;9.43;;;7.50;99.90;;;;;;5028516;28;20171;-68
2022/11/24 06:25:27;;;;;;;32.43;12.43;;;7.50;99.90;;;;;;5032021;28;20246;-68
2022/11/24 06:27:53;;;;;;;33.93;8.30;;;7.40;99.90;;;;;;5028573;28;20183;-67
2022/11/24 06:30:18;;;;;;;26.40;7.90;;;7.50;99.90;;;;;;5023459;28;20422;-68
2022/11/24 06:32:45;;;;;;;30.10;7.30;;;7.50;99.90;;;;;;5022243;28;20658;-70
2022/11/24 06:35:14;;;;;;;35.77;7.10;;;7.50;99.90;;;;;;5020493;28;20196;-67
2022/11/24 06:37:40;;;;;;;19.63;6.83;;;7.50;99.90;;;;;;5024441;28;20441;-66
2022/11/24 06:40:09;;;;;;;27.23;6.27;;;7.60;99.90;;;;;;5025074;28;21069;-67
2022/11/24 06:42:36;;;;;;;21.70;7.10;;;7.70;99.90;;;;;;5025334;28;20186;-67
2022/11/24 06:45:02;;;;;;;29.40;8.67;;;7.70;99.90;;;;;;5028212;28;20469;-67
2022/11/24 06:47:27;;;;;;;19.30;6.50;;;7.80;99.90;;;;;;5026666;28;20434;-66
2022/11/24 06:49:53;;;;;;;32.77;6.93;;;7.90;1.00;;;;;;5027278;28;20434;-66
2022/11/24 06:52:19;;;;;;;23.73;6.50;;;7.90;1.00;;;;;;5024599;28;20172;-67
2022/11/24 06:54:44;;;;;;;32.03;7.17;;;8.00;1.00;;;;;;5027567;28;20291;-67
2022/11/24 06:57:10;;;;;;;27.30;6.70;;;8.10;1.00;;;;;;5027041;28;20175;-70
2022/11/24 06:59:36;;;;;;;26.20;7.40;;;8.10;1.00;;;;;;5045032;28;20807;-67
2022/11/24 07:02:01;;;;;;;32.20;8.00;;;8.40;99.90;;;;;;5021993;28;20242;-66
2022/11/24 07:04:27;;;;;;;29.83;6.93;;;8.70;1.00;;;;;;5008357;28;20192;-66
2022/11/24 07:06:53;;;;;;;22.23;6.80;;;9.10;99.90;;;;;;5017184;28;20314;-66
2022/11/24 07:09:18;;;;;;;21.57;6.97;;;9.60;1.00;;;;;;5034886;28;20176;-66
2022/11/24 07:11:44;;;;;;;23.83;6.20;;;9.60;99.90;;;;;;5035200;28;20260;-67
2022/11/24 07:14:10;;;;;;;17.47;5.47;;;10.00;1.00;;;;;;5028328;28;20211;-68
2022/11/24 07:16:35;;;;;;;15.27;5.20;;;10.20;1.00;;;;;;5034013;28;20509;-67
2022/11/24 07:19:02;;;;;;;22.27;6.00;;;10.40;1.00;;;;;;5040056;28;20183;-67
2022/11/24 07:21:29;;;;;;;13.57;6.03;;;10.20;1.00;;;;;;5030455;28;20183;-68
2022/11/24 07:23:56;;;;;;;24.70;5.90;;;10.10;1.00;;;;;;5034125;28;20442;-67
2022/11/24 07:26:22;;;;;;;23.40;5.10;;;10.50;1.00;;;;;;5031059;28;20466;-67
2022/11/24 07:28:49;;;;;;;19.43;5.10;;;10.80;99.90;;;;;;5027562;28;20756;-67
2022/11/24 07:31:17;;;;;;;16.83;4.50;;;10.70;99.90;;;;;;5027089;28;20422;-67
2022/11/24 07:33:50;;;;;;;9.40;4.87;;;10.20;99.90;;;;;;5030134;28;20437;-66
2022/11/24 07:36:16;;;;;;;21.23;4.10;;;10.70;99.90;;;;;;5043234;28;20456;-68
2022/11/24 07:38:42;;;;;;;20.20;5.90;;;11.10;99.90;;;;;;5043531;28;20410;-66
2022/11/24 07:41:10;;;;;;;17.53;4.73;;;10.70;99.90;;;;;;5028773;28;20821;-67
2022/11/24 07:43:37;;;;;;;16.67;4.50;;;10.10;99.90;;;;;;5029069;28;20274;-67
2022/11/24 07:46:05;;;;;;;24.70;4.60;;;9.80;1.00;;;;;;5059844;23;20488;-68
2022/11/24 07:48:31;;;;;;;19.03;4.67;;;9.60;1.00;;;;;;5060716;28;20425;-67
2022/11/24 07:51:00;;;;;;;15.70;4.30;;;9.40;99.90;;;;;;5053229;28;20528;-68
2022/11/24 07:53:26;;;;;;;20.10;3.93;;;9.20;1.00;;;;;;5047704;28;20809;-67
2022/11/24 07:56:00;;;;;;;11.13;3.83;;;9.10;99.90;;;;;;5042514;28;20580;-67
2022/11/24 07:58:30;;;;;;;12.63;3.10;;;9.20;99.90;;;;;;5045042;28;20958;-68
2022/11/24 08:00:56;;;;;;;14.43;3.63;;;9.20;97.70;;;;;;5039105;28;20934;-68
2022/11/24 08:03:22;;;;;;;10.13;4.20;;;9.10;99.90;;;;;;5029887;28;21132;-68
2022/11/24 08:05:58;;;;;;;21.67;4.33;;;8.90;6.00;;;;;;5028217;28;20461;-68
2022/11/24 08:08:24;;;;;;;15.13;3.73;;;8.80;1.00;;;;;;5028922;28;20773;-68
2022/11/24 08:10:49;;;;;;;10.97;4.10;;;8.80;99.90;;;;;;5028727;28;20953;-68
2022/11/24 08:13:16;;;;;;;21.83;5.60;;;8.80;1.00;;;;;;5029163;28;20435;-68
2022/11/24 08:15:41;;;;;;;12.93;4.17;;;8.80;1.00;;;;;;5029394;28;20183;-68
2022/11/24 08:18:07;;;;;;;14.20;3.90;;;8.80;1.00;;;;;;5029484;28;20414;-68
2022/11/24 08:20:33;;;;;;;17.20;4.67;;;8.80;1.00;;;;;;5028485;28;20203;-67
2022/11/24 08:22:59;;;;;;;14.33;4.57;;;8.80;24.60;;;;;;5028735;28;20187;-69
2022/11/24 08:25:30;;;;;;;28.80;5.77;;;8.70;99.90;;;;;;5028908;28;20212;-68
2022/11/24 08:27:57;;;;;;;27.67;6.90;;;8.80;99.90;;;;;;5029171;28;20417;-69
2022/11/24 08:30:23;;;;;;;18.07;4.10;;;8.80;99.90;;;;;;5028619;28;20402;-66
2022/11/24 08:32:49;;;;;;;7.30;3.03;;;8.90;99.90;;;;;;5029036;28;20402;-67
2022/11/24 08:35:14;;;;;;;34.23;5.70;;;8.90;1.00;;;;;;5029138;28;20227;-67
2022/11/24 08:37:40;;;;;;;7.43;3.13;;;8.80;1.00;;;;;;5028861;28;20168;-67
2022/11/24 08:40:06;;;;;;;13.20;4.00;;;8.90;99.90;;;;;;5029501;28;20172;-67
2022/11/24 08:42:34;;;;;;;16.23;3.33;;;8.80;1.00;;;;;;5028618;28;20282;-67
2022/11/24 08:44:59;;;;;;;18.83;4.87;;;8.90;1.00;;;;;;5028908;28;20462;-67
2022/11/24 08:47:25;;;;;;;30.10;6.87;;;8.80;1.00;;;;;;5029179;28;20413;-67
2022/11/24 08:49:50;;;;;;;17.20;4.07;;;8.80;1.00;;;;;;5028931;28;20164;-68
2022/11/24 08:52:16;;;;;;;17.23;3.90;;;8.80;90.50;;;;;;5027676;28;20175;-68
2022/11/24 08:54:43;;;;;;;16.50;4.57;;;8.80;99.90;;;;;;5029044;28;20504;-66
2022/11/24 08:57:12;;;;;;;7.40;2.60;;;8.80;99.90;;;;;;5029184;28;20183;-68
2022/11/24 08:59:37;;;;;;;6.93;3.00;;;8.80;74.80;;;;;;5028837;28;20406;-67
2022/11/24 09:02:03;;;;;;;27.90;5.73;;;8.90;99.90;;;;;;5010959;28;21254;-67
2022/11/24 09:04:29;;;;;;;12.47;3.30;;;9.00;73.40;;;;;;5008968;28;20672;-68
2022/11/24 09:06:54;;;;;;;21.93;6.27;;;9.00;99.90;;;;;;5009263;28;20164;-68
2022/11/24 09:09:20;;;;;;;17.90;4.00;;;9.00;99.90;;;;;;5008802;28;20264;-67
2022/11/24 09:11:46;;;;;;;6.37;3.50;;;8.90;99.90;;;;;;5008460;28;20169;-69
2022/11/24 09:14:11;;;;;;;18.87;4.00;;;8.90;99.90;;;;;;5009477;28;20591;-68
2022/11/24 09:16:37;;;;;;;11.60;4.30;;;8.90;99.90;;;;;;5009109;28;20713;-68
2022/11/24 09:19:04;;;;;;;15.93;4.20;;;8.90;99.90;;;;;;5009314;28;20172;-68
2022/11/24 09:21:33;;;;;;;14.73;4.17;;;8.80;1.00;;;;;;5008451;28;20168;-68
2022/11/24 09:23:59;;;;;;;32.27;5.90;;;8.80;1.00;;;;;;5008297;28;20417;-69
2022/11/24 09:26:30;;;;;;;10.30;3.80;;;8.90;1.00;;;;;;5009187;28;20450;-67
2022/11/24 09:28:57;;;;;;;19.67;5.27;;;8.90;1.00;;;;;;5009231;28;20408;-68
2022/11/24 09:31:25;;;;;;;13.07;3.33;;;8.90;1.00;;;;;;5008148;28;20545;-68
2022/11/24 09:33:52;;;;;;;12.37;3.53;;;8.90;1.00;;;;;;5009216;28;20414;-68
2022/11/24 09:36:19;;;;;;;9.27;3.47;;;8.90;1.00;;;;;;5008998;28;20852;-69
2022/11/24 09:38:45;;;;;;;8.53;2.67;;;8.90;1.00;;;;;;5008842;28;20434;-68
2022/11/24 09:41:16;;;;;;;10.93;3.30;;;8.90;99.90;;;;;;5008476;28;20800;-67
2022/11/24 09:44:01;;;;;;;9.80;3.03;;;8.80;1.00;;;;;;5009600;28;20430;-67
2022/11/24 09:46:30;;;;;;;18.57;3.87;;;8.90;99.90;;;;;;5009767;28;20473;-69
2022/11/24 09:48:57;;;;;;;7.53;3.20;;;8.90;99.90;;;;;;5009824;28;20533;-68
2022/11/24 09:51:30;;;;;;;10.07;3.37;;;8.90;99.90;;;;;;5008440;28;20407;-68
2022/11/24 09:54:10;;;;;;;10.23;2.70;;;9.00;99.90;;;;;;5008330;28;20403;-68
2022/11/24 09:56:39;;;;;;;9.90;2.90;;;9.00;99.90;;;;;;5009493;28;20618;-68
2022/11/24 09:59:17;;;;;;;8.03;2.47;;;9.00;99.90;;;;;;5009344;28;20430;-68
2022/11/24 10:01:45;;;;;;;14.27;3.23;;;9.10;1.00;;;;;;5022972;28;20414;-67
2022/11/24 10:04:26;;;;;;;24.87;4.20;;;9.10;1.00;;;;;;5028785;28;20413;-67
2022/11/24 10:07:21;;;;;;;13.13;4.20;;;9.30;1.00;;;;;;5028742;28;20803;-68
2022/11/24 10:10:04;;;;;;;23.00;3.83;;;9.90;1.00;;;;;;5026953;28;20457;-66
2022/11/24 10:12:36;;;;;;;32.50;6.83;;;10.40;99.90;;;;;;5031204;28;20402;-67
2022/11/24 10:15:32;;;;;;;16.60;3.70;;;10.70;1.00;;;;;;5032351;28;20459;-69
2022/11/24 10:18:07;;;;;;;6.40;2.30;;;11.00;1.00;;;;;;5031890;28;20407;-67
2022/11/24 10:21:00;;;;;;;10.57;2.67;;;11.40;1.00;;;;;;5031335;28;20882;-67
2022/11/24 10:24:11;;;;;;;15.00;3.00;;;11.20;99.90;;;;;;5031623;28;20484;-67
2022/11/24 10:26:38;;;;;;;6.63;2.47;;;11.10;99.90;;;;;;5026464;28;21072;-66
2022/11/24 10:29:23;;;;;;;7.40;3.17;;;11.00;99.90;;;;;;5032198;28;20414;-66
2022/11/24 10:31:53;;;;;;;17.57;3.80;;;11.00;99.90;;;;;;5031060;28;20410;-67
2022/11/24 10:34:28;;;;;;;7.57;2.90;;;11.10;99.90;;;;;;5031499;28;20438;-67
2022/11/24 10:37:02;;;;;;;7.13;1.93;;;11.00;99.90;;;;;;5031444;28;20398;-68
2022/11/24 10:39:51;;;;;;;6.33;2.30;;;11.00;99.90;;;;;;5031113;28;20489;-67
2022/11/24 10:42:29;;;;;;;23.50;3.80;;;10.80;99.90;;;;;;5030654;28;20465;-66
2022/11/24 10:45:21;;;;;;;6.00;2.50;;;10.70;99.90;;;;;;5030981;28;20476;-67
2022/11/24 10:47:48;;;;;;;20.23;3.27;;;10.50;99.90;;;;;;5029975;28;20426;-66
2022/11/24 10:50:25;;;;;;;4.47;1.87;;;10.50;99.90;;;;;;5030734;28;20406;-66
2022/11/24 10:53:14;;;;;;;13.30;2.70;;;10.30;99.90;;;;;;5030171;28;20427;-67
2022/11/24 10:55:55;;;;;;;12.10;2.10;;;10.30;99.90;;;;;;5031092;28;20423;-67
2022/11/24 10:58:37;;;;;;;9.07;2.00;;;10.20;99.90;;;;;;5030659;28;20432;-67
2022/11/24 11:01:12;;;;;;;6.60;1.80;;;10.20;99.90;;;;;;5020714;28;20920;-66
2022/11/24 11:03:53;;;;;;;6.70;2.73;;;10.10;99.90;;;;;;5011111;28;20406;-67
2022/11/24 11:06:30;;;;;;;12.53;2.63;;;10.10;99.90;;;;;;5011291;28;20979;-67
2022/11/24 11:09:05;;;;;;;4.57;1.87;;;10.20;99.90;;;;;;5010536;28;20403;-67
2022/11/24 11:11:31;;;;;;;6.50;2.10;;;10.30;99.90;;;;;;5009993;28;20403;-67
2022/11/24 11:13:59;;;;;;;4.70;1.60;;;10.40;99.90;;;;;;5010455;28;20417;-67
2022/11/24 11:16:29;;;;;;;7.10;2.20;;;10.40;99.90;;;;;;5011030;28;20502;-67
2022/11/24 11:18:55;;;;;;;15.83;3.10;;;10.40;99.90;;;;;;5010422;28;20403;-67
2022/11/24 11:21:37;;;;;;;16.07;2.80;;;10.60;99.90;;;;;;5009910;28;20495;-66
2022/11/24 11:24:13;;;;;;;41.27;4.47;;;10.80;99.90;;;;;;5009863;28;20411;-67
2022/11/24 11:26:41;;;;;;;38.63;5.80;;;10.80;99.90;;;;;;5011182;28;20512;-69
2022/11/24 11:29:06;;;;;;;5.50;2.10;;;10.80;99.90;;;;;;5010571;28;20840;-66
2022/11/24 11:31:34;;;;;;;20.20;3.90;;;10.90;86.50;;;;;;5010785;28;20482;-68
2022/11/24 11:34:09;;;;;;;11.50;2.27;;;10.80;53.60;;;;;;5010488;28;20195;-68
2022/11/24 11:36:58;;;;;;;9.20;2.07;;;10.80;55.70;;;;;;5010686;28;20395;-68
2022/11/24 11:39:33;;;;;;;4.93;1.67;;;10.80;15.00;;;;;;5010285;28;20815;-68
2022/11/24 11:42:02;;;;;;;6.10;2.70;;;11.00;1.00;;;;;;5009920;28;20411;-68
2022/11/24 11:44:48;;;;;;;37.13;4.97;;;11.00;1.00;;;;;;5009811;28;20439;-68
2022/11/24 11:47:49;;;;;;;4.60;1.47;;;10.90;1.00;;;;;;5010781;28;20415;-68
2022/11/24 11:50:22;;;;;;;16.57;2.67;;;11.00;1.00;;;;;;5009494;28;20506;-68
2022/11/24 11:53:05;;;;;;;6.70;1.90;;;11.00;1.00;;;;;;5009449;28;20408;-68
2022/11/24 11:55:39;;;;;;;2.50;1.50;;;11.20;1.00;;;;;;5010639;28;20514;-68
2022/11/24 11:58:40;;;;;;;8.53;4.80;;;11.30;1.00;;;;;;5010278;28;20771;-68
2022/11/24 12:01:29;;;;;;;7.13;1.80;;;11.30;1.00;;;;;;5019327;28;20978;-67
2022/11/24 12:04:08;;;;;;;3.47;1.53;;;11.40;1.00;;;;;;5029506;28;20782;-68
2022/11/24 12:06:56;;;;;;;13.40;2.30;;;11.60;1.00;;;;;;5030120;28;20449;-68
2022/11/24 12:09:42;;;;;;;9.37;2.20;;;11.80;1.00;;;;;;5029421;28;20985;-68
2022/11/24 12:12:37;;;;;;;3.93;1.27;;;12.00;1.00;;;;;;5028954;28;20390;-67
2022/11/24 12:15:40;;;;;;;19.17;3.63;;;12.00;1.00;;;;;;5029346;28;20460;-68
2022/11/24 12:18:33;;;;;;;12.60;2.70;;;11.90;1.00;;;;;;5025211;28;20452;-69
2022/11/24 12:21:18;;;;;;;38.43;4.40;;;11.60;1.00;;;;;;5039649;28;20465;-69
2022/11/24 12:24:03;;;;;;;9.63;2.83;;;11.70;1.00;;;;;;5048585;28;20402;-66
2022/11/24 12:26:54;;;;;;;12.83;2.13;;;11.80;59.20;;;;;;5049336;28;20511;-68
2022/11/24 12:29:44;;;;;;;22.53;3.20;;;11.60;1.00;;;;;;5037673;28;20464;-67
2022/11/24 12:32:24;;;;;;;24.73;3.30;;;11.40;1.00;;;;;;5008537;28;20473;-68
2022/11/24 12:34:56;;;;;;;34.83;5.93;;;11.40;1.00;;;;;;5008801;28;20451;-68
2022/11/24 12:37:38;;;;;;;25.47;5.10;;;11.50;48.10;;;;;;5009248;28;21157;-67
2022/11/24 12:40:37;;;;;;;19.20;3.10;;;11.60;1.00;;;;;;5027038;28;20452;-67
2022/11/24 12:43:15;;;;;;;4.07;2.80;;;11.40;38.70;;;;;;5022710;28;20855;-68
2022/11/24 12:46:06;;;;;;;3.43;2.37;;;11.30;1.00;;;;;;5029834;28;20528;-68
2022/11/24 12:48:34;;;;;;;3.37;1.80;;;11.30;18.30;;;;;;5031130;28;20438;-67
2022/11/24 12:51:02;;;;;;;8.07;2.90;;;11.30;1.00;;;;;;5036371;28;20456;-68
2022/11/24 12:53:31;;;;;;;4.77;1.70;;;11.30;1.00;;;;;;5034309;28;20430;-66
2022/11/24 12:56:08;;;;;;;10.80;3.00;;;11.20;1.00;;;;;;5027666;28;20439;-67
2022/11/24 12:59:01;;;;;;;102.87;13.73;;;11.20;1.00;;;;;;5021624;28;20437;-66
2022/11/24 13:01:47;;;;;;;19.80;3.40;;;11.10;1.00;;;;;;5018999;28;20471;-66
2022/11/24 13:04:38;;;;;;;10.10;1.93;;;11.10;1.00;;;;;;5016600;28;20835;-66
2022/11/24 13:07:09;;;;;;;3.93;2.90;;;11.00;1.00;;;;;;5017172;28;20844;-67
2022/11/24 13:09:35;;;;;;;7.63;2.37;;;11.10;1.00;;;;;;5020403;28;20419;-67